Time;durP1;ratioP1;P1;durP2;ratioP2;P2;SDS_P1;SDS_P2;PMS_P1;PMS_P2;Temp;Humidity;BMP_temperature;BMP_pressure;BME280_temperature;BME280_humidity;BME280_pressure;Samples;Min_cycle;Max_cycle;Signal;HPM_P1;HPM_P2
2022/12/05 00:00:59;;;;;;;10.18;7.47;;;;;;;;;;5092298;28;20036;-67
2022/12/05 00:03:27;;;;;;;10.93;7.90;;;;;;;;;;5092383;28;20040;-67
2022/12/05 00:05:54;;;;;;;10.55;7.75;;;;;;;;;;5092102;28;20164;-67
2022/12/05 00:08:21;;;;;;;11.90;7.82;;;;;;;;;;5091051;28;20424;-67
2022/12/05 00:10:49;;;;;;;10.77;7.45;;;;;;;;;;5092095;28;20036;-67
2022/12/05 00:13:16;;;;;;;9.30;7.07;;;;;;;;;;5093271;28;20098;-67
2022/12/05 00:15:44;;;;;;;11.85;7.93;;;;;;;;;;5096239;28;20040;-67
2022/12/05 00:18:11;;;;;;;10.52;7.22;;;;;;;;;;5096414;28;20042;-67
2022/12/05 00:20:44;;;;;;;13.68;8.93;;;;;;;;;;5096362;28;20048;-67
2022/12/05 00:23:12;;;;;;;9.18;6.50;;;;;;;;;;5096209;28;20051;-67
2022/12/05 00:25:39;;;;;;;10.57;6.53;;;;;;;;;;5096152;28;20513;-67
2022/12/05 00:28:07;;;;;;;9.18;6.55;;;;;;;;;;5095821;28;20052;-67
2022/12/05 00:30:34;;;;;;;11.02;7.40;;;;;;;;;;5094715;28;20036;-67
2022/12/05 00:33:02;;;;;;;9.52;6.45;;;;;;;;;;5095752;28;20127;-67
2022/12/05 00:35:29;;;;;;;8.70;6.70;;;;;;;;;;5094484;28;20101;-67
2022/12/05 00:37:57;;;;;;;10.63;6.78;;;;;;;;;;5095711;28;20051;-67
2022/12/05 00:40:24;;;;;;;9.23;6.40;;;;;;;;;;5095760;28;20485;-67
2022/12/05 00:42:52;;;;;;;9.15;6.10;;;;;;;;;;5095696;28;20075;-67
2022/12/05 00:45:19;;;;;;;8.93;6.13;;;;;;;;;;5095727;28;20044;-67
2022/12/05 00:47:47;;;;;;;9.50;6.72;;;;;;;;;;5095650;28;20048;-67
2022/12/05 00:50:14;;;;;;;8.48;6.57;;;;;;;;;;5095397;28;20086;-67
2022/12/05 00:52:41;;;;;;;9.98;6.82;;;;;;;;;;5095424;28;20047;-67
2022/12/05 00:55:09;;;;;;;10.57;6.70;;;;;;;;;;5095660;28;20040;-67
2022/12/05 00:57:36;;;;;;;8.25;5.88;;;;;;;;;;5095437;28;20047;-67
2022/12/05 01:00:05;;;;;;;9.52;6.40;;;;;;;;;;5095568;28;20032;-67
2022/12/05 01:02:32;;;;;;;8.80;5.82;;;;;;;;;;5095571;28;20051;-67
2022/12/05 01:05:00;;;;;;;8.82;6.28;;;;;;;;;;5093857;28;20562;-67
2022/12/05 01:07:27;;;;;;;8.73;6.05;;;;;;;;;;5093768;28;20464;-67
2022/12/05 01:09:55;;;;;;;8.15;5.85;;;;;;;;;;5094149;28;20051;-67
2022/12/05 01:12:23;;;;;;;8.75;6.47;;;;;;;;;;5095097;28;20051;-67
2022/12/05 01:14:50;;;;;;;9.18;6.53;;;;;;;;;;5095193;28;20090;-67
2022/12/05 01:17:18;;;;;;;9.55;6.43;;;;;;;;;;5095023;28;20040;-67
2022/12/05 01:19:45;;;;;;;8.25;6.32;;;;;;;;;;5095196;28;20074;-67
2022/12/05 01:22:13;;;;;;;8.23;6.07;;;;;;;;;;5095028;28;20127;-67
2022/12/05 01:24:40;;;;;;;9.05;6.32;;;;;;;;;;5094381;28;20062;-67
2022/12/05 01:27:07;;;;;;;7.60;5.60;;;;;;;;;;5094661;28;20044;-67
2022/12/05 01:29:35;;;;;;;8.00;5.88;;;;;;;;;;5094862;28;20070;-67
2022/12/05 01:32:03;;;;;;;7.50;5.50;;;;;;;;;;5094531;28;20056;-67
2022/12/05 01:34:30;;;;;;;7.28;5.65;;;;;;;;;;5094858;28;20363;-67
2022/12/05 01:36:58;;;;;;;8.55;5.72;;;;;;;;;;5093286;28;20044;-67
2022/12/05 01:39:25;;;;;;;7.97;5.32;;;;;;;;;;5093362;28;20040;-67
2022/12/05 01:41:52;;;;;;;9.93;5.90;;;;;;;;;;5094555;28;20106;-67
2022/12/05 01:44:23;;;;;;;7.68;5.82;;;;;;;;;;5094890;28;20044;-68
2022/12/05 01:46:51;;;;;;;8.02;5.18;;;;;;;;;;5094463;28;20114;-67
2022/12/05 01:49:23;;;;;;;11.18;6.10;;;;;;;;;;5094424;28;20064;-67
2022/12/05 01:51:55;;;;;;;7.43;5.28;;;;;;;;;;5094438;28;20042;-67
2022/12/05 01:54:23;;;;;;;6.90;5.30;;;;;;;;;;5094396;28;20050;-68
2022/12/05 01:56:55;;;;;;;6.97;5.65;;;;;;;;;;5094494;28;20047;-68
2022/12/05 01:59:24;;;;;;;7.45;4.93;;;;;;;;;;5094242;28;20048;-67
2022/12/05 02:01:51;;;;;;;7.65;5.25;;;;;;;;;;5094240;28;20067;-67
2022/12/05 02:04:19;;;;;;;7.13;5.40;;;;;;;;;;5094292;28;20119;-67
2022/12/05 02:06:47;;;;;;;7.25;5.57;;;;;;;;;;5094421;28;20078;-67
2022/12/05 02:09:14;;;;;;;8.85;5.55;;;;;;;;;;5094193;28;20071;-67
2022/12/05 02:11:46;;;;;;;8.20;5.22;;;;;;;;;;5093921;28;20040;-67
2022/12/05 02:14:16;;;;;;;7.43;4.90;;;;;;;;;;5093894;28;20040;-67
2022/12/05 02:16:50;;;;;;;5.65;4.57;;;;;;;;;;5093875;28;20036;-67
2022/12/05 02:19:36;;;;;;;7.32;4.72;;;;;;;;;;5093918;28;20064;-67
2022/12/05 02:22:26;;;;;;;9.20;5.78;;;;;;;;;;5093889;28;20051;-66
2022/12/05 02:25:03;;;;;;;8.15;5.13;;;;;;;;;;5093537;28;20044;-67
2022/12/05 02:27:49;;;;;;;9.00;4.78;;;;;;;;;;5093602;28;20071;-67
2022/12/05 02:30:18;;;;;;;6.32;4.75;;;;;;;;;;5092264;28;20088;-67
2022/12/05 02:32:59;;;;;;;6.20;4.65;;;;;;;;;;5093751;28;20103;-67
2022/12/05 02:35:34;;;;;;;7.80;5.18;;;;;;;;;;5093155;28;20055;-67
2022/12/05 02:38:13;;;;;;;7.10;5.53;;;;;;;;;;5093193;28;20397;-67
2022/12/05 02:40:43;;;;;;;6.50;4.70;;;;;;;;;;5093294;28;20490;-66
2022/12/05 02:43:15;;;;;;;6.57;4.35;;;;;;;;;;5093499;28;20393;-67
2022/12/05 02:45:43;;;;;;;6.00;4.18;;;;;;;;;;5093108;28;20039;-67
2022/12/05 02:48:12;;;;;;;6.35;4.55;;;;;;;;;;5091954;28;20619;-67
2022/12/05 02:50:41;;;;;;;5.53;3.85;;;;;;;;;;5093191;28;20032;-67
2022/12/05 02:53:11;;;;;;;6.05;3.60;;;;;;;;;;5093107;28;20078;-67
2022/12/05 02:55:39;;;;;;;6.22;3.67;;;;;;;;;;5093062;28;20050;-67
2022/12/05 02:58:11;;;;;;;4.55;3.70;;;;;;;;;;5093079;28;20090;-67
2022/12/05 03:00:39;;;;;;;4.75;3.75;;;;;;;;;;5093105;28;20066;-67
2022/12/05 03:03:12;;;;;;;5.32;3.70;;;;;;;;;;5093068;28;20039;-67
2022/12/05 03:05:39;;;;;;;5.53;3.80;;;;;;;;;;5093100;28;20048;-67
2022/12/05 03:08:10;;;;;;;4.65;3.50;;;;;;;;;;5093116;28;20119;-67
2022/12/05 03:10:39;;;;;;;4.68;3.38;;;;;;;;;;5093022;28;20440;-67
2022/12/05 03:13:11;;;;;;;5.15;3.50;;;;;;;;;;5093001;28;20044;-66
2022/12/05 03:15:40;;;;;;;4.35;3.17;;;;;;;;;;5092940;28;20046;-65
2022/12/05 03:18:18;;;;;;;4.28;3.35;;;;;;;;;;5091600;28;20542;-66
2022/12/05 03:20:47;;;;;;;3.72;2.88;;;;;;;;;;5093080;28;20047;-66
2022/12/05 03:23:18;;;;;;;5.88;3.28;;;;;;;;;;5092794;28;20131;-67
2022/12/05 03:25:45;;;;;;;4.40;3.28;;;;;;;;;;5092552;28;20253;-66
2022/12/05 03:28:33;;;;;;;4.20;2.85;;;;;;;;;;5091481;28;20044;-66
2022/12/05 03:31:04;;;;;;;3.28;2.63;;;;;;;;;;5092457;28;20031;-66
2022/12/05 03:33:36;;;;;;;3.90;2.97;;;;;;;;;;5092863;28;20109;-67
2022/12/05 03:36:17;;;;;;;4.00;3.03;;;;;;;;;;5092674;28;20044;-67
2022/12/05 03:38:51;;;;;;;4.60;3.35;;;;;;;;;;5092703;28;20039;-67
2022/12/05 03:41:34;;;;;;;4.20;3.10;;;;;;;;;;5092519;28;20031;-67
2022/12/05 03:44:08;;;;;;;5.28;3.42;;;;;;;;;;5092536;28;20032;-67
2022/12/05 03:46:38;;;;;;;5.05;3.42;;;;;;;;;;5092621;28;20048;-67
2022/12/05 03:49:09;;;;;;;5.00;3.65;;;;;;;;;;5096896;28;20044;-67
2022/12/05 03:51:58;;;;;;;4.60;3.20;;;;;;;;;;5095521;28;20106;-67
2022/12/05 03:54:27;;;;;;;5.78;3.45;;;;;;;;;;5096684;28;20151;-67
2022/12/05 03:57:24;;;;;;;4.75;3.50;;;;;;;;;;5096547;28;20044;-67
2022/12/05 03:59:54;;;;;;;5.20;3.65;;;;;;;;;;5083751;28;20425;-67
2022/12/05 04:02:26;;;;;;;7.88;3.67;;;;;;;;;;5096488;28;20043;-67
2022/12/05 04:05:01;;;;;;;4.32;3.30;;;;;;;;;;5096327;28;20560;-67
2022/12/05 04:07:28;;;;;;;;;;;;;;;;;;5096778;28;20044;-67
2022/12/05 04:09:57;;;;;;;4.53;3.20;;;;;;;;;;5096456;28;19924;-67
2022/12/05 04:12:27;;;;;;;4.30;3.08;;;;;;;;;;5096197;28;20040;-67
2022/12/05 04:14:59;;;;;;;4.97;3.45;;;;;;;;;;5096372;28;20431;-67
2022/12/05 04:17:30;;;;;;;4.22;3.25;;;;;;;;;;5096386;28;20052;-67
2022/12/05 04:22:58;;;;;;;5.20;3.25;;;;;;;;;;5096246;28;20402;-68
2022/12/05 04:25:32;;;;;;;5.32;3.55;;;;;;;;;;5094826;28;20583;-67
2022/12/05 04:28:15;;;;;;;4.78;3.70;;;;;;;;;;5095920;28;20043;-67
2022/12/05 04:31:00;;;;;;;4.60;3.20;;;;;;;;;;5095764;28;20043;-67
2022/12/05 04:33:43;;;;;;;4.70;3.45;;;;;;;;;;5095824;28;20036;-67
2022/12/05 04:36:15;;;;;;;5.88;3.50;;;;;;;;;;5095761;28;20081;-67
2022/12/05 04:38:43;;;;;;;4.75;3.28;;;;;;;;;;5096239;28;20044;-67
2022/12/05 04:41:13;;;;;;;5.57;3.78;;;;;;;;;;5095738;28;20040;-67
2022/12/05 04:43:41;;;;;;;6.07;4.32;;;;;;;;;;5095778;28;20064;-67
2022/12/05 04:46:11;;;;;;;5.47;3.90;;;;;;;;;;5094349;28;20565;-67
2022/12/05 04:48:40;;;;;;;5.10;3.65;;;;;;;;;;5094176;28;20068;-67
2022/12/05 04:51:12;;;;;;;5.45;3.72;;;;;;;;;;5031768;28;20564;-67
2022/12/05 04:53:41;;;;;;;5.95;4.45;;;;;;;;;;4992430;28;20050;-67
2022/12/05 04:56:09;;;;;;;5.93;4.28;;;;;;;;;;4991427;28;20042;-66
2022/12/05 04:58:36;;;;;;;7.78;5.15;;;;;;;;;;4991861;28;20042;-67
2022/12/05 05:01:11;;;;;;;6.43;4.43;;;;;;;;;;4992463;28;20046;-67
2022/12/05 05:03:44;;;;;;;6.55;4.65;;;;;;;;;;4992495;28;20042;-66
2022/12/05 05:06:12;;;;;;;8.02;3.80;;;;;;;;;;4992667;28;20544;-67
2022/12/05 05:08:58;;;;;;;5.18;3.70;;;;;;;;;;4992391;28;20111;-67
2022/12/05 05:11:25;;;;;;;;;;;;;;;;;;4992632;28;20046;-67
2022/12/05 05:13:53;;;;;;;7.20;3.90;;;;;;;;;;4991273;28;19967;-67
2022/12/05 05:16:25;;;;;;;5.38;3.67;;;;;;;;;;4992441;28;20061;-67
2022/12/05 05:18:53;;;;;;;5.70;4.25;;;;;;;;;;4991089;28;20047;-67
2022/12/05 05:21:20;;;;;;;5.57;3.88;;;;;;;;;;4992209;28;20038;-67
2022/12/05 05:23:48;;;;;;;5.75;3.90;;;;;;;;;;4992228;28;20103;-67
2022/12/05 05:26:15;;;;;;;5.30;3.70;;;;;;;;;;4992523;28;20077;-68
2022/12/05 05:28:43;;;;;;;5.93;3.75;;;;;;;;;;4990553;28;20043;-67
2022/12/05 05:31:10;;;;;;;6.30;4.00;;;;;;;;;;4992292;28;20480;-67
2022/12/05 05:33:38;;;;;;;6.35;4.43;;;;;;;;;;4992229;28;20442;-68
2022/12/05 05:36:10;;;;;;;6.95;4.35;;;;;;;;;;4992127;28;20108;-67
2022/12/05 05:38:38;;;;;;;5.70;4.03;;;;;;;;;;4992126;28;20509;-67
2022/12/05 05:41:11;;;;;;;6.50;4.32;;;;;;;;;;4991934;28;20068;-67
2022/12/05 05:43:39;;;;;;;7.22;4.43;;;;;;;;;;4990792;28;20121;-67
2022/12/05 05:46:06;;;;;;;7.43;4.78;;;;;;;;;;4991258;28;20034;-67
2022/12/05 05:48:34;;;;;;;8.18;5.43;;;;;;;;;;4991753;28;20080;-67
2022/12/05 05:51:02;;;;;;;8.52;5.45;;;;;;;;;;5016870;28;20437;-67
2022/12/05 05:53:30;;;;;;;8.85;5.72;;;;;;;;;;5011347;28;20042;-67
2022/12/05 05:55:57;;;;;;;8.35;5.40;;;;;;;;;;5011188;28;20091;-66
2022/12/05 05:58:25;;;;;;;8.27;5.63;;;;;;;;;;5011275;28;20046;-66
2022/12/05 06:00:52;;;;;;;8.30;5.63;;;;;;;;;;5011404;28;20048;-67
2022/12/05 06:03:20;;;;;;;7.90;5.50;;;;;;;;;;5011341;28;20048;-66
2022/12/05 06:05:56;;;;;;;8.18;5.15;;;;;;;;;;5011301;28;20042;-66
2022/12/05 06:08:24;;;;;;;7.53;4.90;;;;;;;;;;5011451;28;20361;-66
2022/12/05 06:10:51;;;;;;;6.85;4.85;;;;;;;;;;5011345;28;20083;-66
2022/12/05 06:13:19;;;;;;;8.18;5.10;;;;;;;;;;5011285;28;20034;-66
2022/12/05 06:15:46;;;;;;;8.00;5.63;;;;;;;;;;5011237;28;20065;-66
2022/12/05 06:18:13;;;;;;;8.43;5.45;;;;;;;;;;5011007;28;20112;-66
2022/12/05 06:20:41;;;;;;;7.35;5.15;;;;;;;;;;5009865;28;20102;-66
2022/12/05 06:23:08;;;;;;;6.97;5.32;;;;;;;;;;5011314;28;20042;-66
2022/12/05 06:25:36;;;;;;;8.10;5.18;;;;;;;;;;5009581;28;20050;-67
2022/12/05 06:28:03;;;;;;;7.82;5.50;;;;;;;;;;5010859;28;20088;-66
2022/12/05 06:30:31;;;;;;;7.65;5.32;;;;;;;;;;5010963;28;20534;-66
2022/12/05 06:32:58;;;;;;;7.22;5.10;;;;;;;;;;5010838;28;20048;-66
2022/12/05 06:35:26;;;;;;;6.40;4.30;;;;;;;;;;5010896;28;20102;-66
2022/12/05 06:37:53;;;;;;;7.30;4.90;;;;;;;;;;5010753;28;20034;-66
2022/12/05 06:40:21;;;;;;;8.25;6.18;;;;;;;;;;4993192;28;20038;-67
2022/12/05 06:42:48;;;;;;;8.30;5.05;;;;;;;;;;5010813;28;20049;-66
2022/12/05 06:45:15;;;;;;;8.38;5.13;;;;;;;;;;5009871;28;20437;-66
2022/12/05 06:47:43;;;;;;;6.85;4.60;;;;;;;;;;5010906;28;20369;-66
2022/12/05 06:50:10;;;;;;;7.90;5.45;;;;;;;;;;5010567;28;20066;-66
2022/12/05 06:52:38;;;;;;;7.22;5.13;;;;;;;;;;5010881;28;20061;-66
2022/12/05 06:55:06;;;;;;;7.70;5.25;;;;;;;;;;5010582;28;20046;-66
2022/12/05 06:57:33;;;;;;;7.82;5.30;;;;;;;;;;5010493;28;20038;-66
2022/12/05 07:02:49;;;;;;;7.30;4.85;;;;;;;;;;5010439;28;20130;-66
2022/12/05 07:05:17;;;;;;;7.00;4.90;;;;;;;;;;5010708;28;20091;-66
2022/12/05 07:07:45;;;;;;;8.25;5.60;;;;;;;;;;5010247;28;20510;-67
2022/12/05 07:10:12;;;;;;;8.32;5.82;;;;;;;;;;5010305;28;20038;-66
2022/12/05 07:12:40;;;;;;;8.18;6.05;;;;;;;;;;5010456;28;20094;-66
2022/12/05 07:15:07;;;;;;;7.53;5.55;;;;;;;;;;5010579;28;20496;-66
2022/12/05 07:17:36;;;;;;;8.93;5.75;;;;;;;;;;5010490;28;20441;-66
2022/12/05 07:20:03;;;;;;;8.57;6.18;;;;;;;;;;5010250;28;20120;-66
2022/12/05 07:22:31;;;;;;;10.05;6.68;;;;;;;;;;5009658;28;20042;-67
2022/12/05 07:24:58;;;;;;;9.27;5.95;;;;;;;;;;5010035;28;20056;-67
2022/12/05 07:27:26;;;;;;;8.85;5.97;;;;;;;;;;5010154;28;20034;-66
2022/12/05 07:29:55;;;;;;;9.07;6.32;;;;;;;;;;5010276;28;20117;-67
2022/12/05 07:32:23;;;;;;;10.52;7.10;;;;;;;;;;5010497;28;20038;-66
2022/12/05 07:34:50;;;;;;;9.18;6.60;;;;;;;;;;5010071;28;20144;-66
2022/12/05 07:37:22;;;;;;;10.43;7.30;;;;;;;;;;5010258;28;20399;-66
2022/12/05 07:39:51;;;;;;;10.10;6.55;;;;;;;;;;5010156;28;20038;-66
2022/12/05 07:42:18;;;;;;;9.88;7.05;;;;;;;;;;5010096;28;20042;-66
2022/12/05 07:44:46;;;;;;;8.65;6.22;;;;;;;;;;5009746;28;20087;-66
2022/12/05 07:47:13;;;;;;;8.65;5.85;;;;;;;;;;5009854;28;20069;-66
2022/12/05 07:49:41;;;;;;;9.82;6.78;;;;;;;;;;5009599;28;20046;-66
2022/12/05 07:52:08;;;;;;;10.07;6.78;;;;;;;;;;5009846;28;20045;-67
2022/12/05 07:54:36;;;;;;;11.07;7.57;;;;;;;;;;5009764;28;20045;-66
2022/12/05 07:57:03;;;;;;;9.90;6.97;;;;;;;;;;5009708;28;20049;-66
2022/12/05 07:59:31;;;;;;;8.98;6.13;;;;;;;;;;5009708;28;20069;-66
2022/12/05 08:01:58;;;;;;;7.88;5.50;;;;;;;;;;5009604;28;20050;-66
2022/12/05 08:04:26;;;;;;;9.63;6.47;;;;;;;;;;5008478;28;20046;-66
2022/12/05 08:06:53;;;;;;;9.02;5.43;;;;;;;;;;5009577;28;20038;-66
2022/12/05 08:09:21;;;;;;;11.07;7.80;;;;;;;;;;5009504;28;20103;-66
2022/12/05 08:11:48;;;;;;;10.57;6.95;;;;;;;;;;5009441;28;20037;-66
2022/12/05 08:14:19;;;;;;;11.10;6.10;;;;;;;;;;5009531;28;20061;-66
2022/12/05 08:16:46;;;;;;;9.60;6.43;;;;;;;;;;5009496;28;20373;-66
2022/12/05 08:19:15;;;;;;;9.90;6.95;;;;;;;;;;5009306;28;20423;-67
2022/12/05 08:21:43;;;;;;;12.07;8.35;;;;;;;;;;5009687;28;20483;-66
2022/12/05 08:24:11;;;;;;;14.77;9.70;;;;;;;;;;5009354;28;20046;-67
2022/12/05 08:26:39;;;;;;;16.02;10.00;;;;;;;;;;5009486;28;20050;-66
2022/12/05 08:29:10;;;;;;;8.30;5.65;;;;;;;;;;5009365;28;20121;-66
2022/12/05 08:31:48;;;;;;;12.82;9.15;;;;;;;;;;5009605;28;20038;-66
2022/12/05 08:34:17;;;;;;;11.57;7.93;;;;;;;;;;5010172;28;20049;-66
2022/12/05 08:36:44;;;;;;;10.38;6.68;;;;;;;;;;5012715;28;20042;-66
2022/12/05 08:39:14;;;;;;;8.63;6.35;;;;;;;;;;5011362;28;20053;-66
2022/12/05 08:41:46;;;;;;;8.82;5.75;;;;;;;;;;5012727;28;20066;-66
2022/12/05 08:44:15;;;;;;;10.88;7.45;;;;;;;;;;5012424;28;20053;-66
2022/12/05 08:46:44;;;;;;;8.85;6.18;;;;;;;;;;5012692;28;20076;-66
2022/12/05 08:49:11;;;;;;;9.52;6.43;;;;;;;;;;5012751;28;20053;-66
2022/12/05 08:51:40;;;;;;;8.95;5.80;;;;;;;;;;5012346;28;20126;-66
2022/12/05 08:54:07;;;;;;;8.43;6.10;;;;;;;;;;5012459;28;20091;-66
2022/12/05 08:56:34;;;;;;;10.68;6.10;;;;;;;;;;5012663;28;20452;-66
2022/12/05 08:59:02;;;;;;;9.30;6.30;;;;;;;;;;5012440;28;20070;-66
2022/12/05 09:01:32;;;;;;;9.90;6.82;;;;;;;;;;5012492;28;20528;-66
2022/12/05 09:04:01;;;;;;;6.53;4.90;;;;;;;;;;5012371;28;20060;-66
2022/12/05 09:06:29;;;;;;;11.23;7.15;;;;;;;;;;5012228;28;20073;-66
2022/12/05 09:08:57;;;;;;;10.75;6.47;;;;;;;;;;5012148;28;20034;-66
2022/12/05 09:11:26;;;;;;;10.48;6.95;;;;;;;;;;5010844;28;20487;-66
2022/12/05 09:13:55;;;;;;;10.25;7.15;;;;;;;;;;5012016;28;20067;-66
2022/12/05 09:16:25;;;;;;;8.98;6.90;;;;;;;;;;5012044;28;20053;-66
2022/12/05 09:18:52;;;;;;;7.15;4.97;;;;;;;;;;5012162;28;20056;-67
2022/12/05 09:21:21;;;;;;;8.65;6.30;;;;;;;;;;5011855;28;20042;-67
2022/12/05 09:23:48;;;;;;;7.93;5.32;;;;;;;;;;5012019;28;20053;-67
2022/12/05 09:26:17;;;;;;;9.23;5.97;;;;;;;;;;5011881;28;20083;-66
2022/12/05 09:28:45;;;;;;;10.38;5.50;;;;;;;;;;5012301;28;20046;-66
2022/12/05 09:31:14;;;;;;;8.40;5.60;;;;;;;;;;5011792;28;20038;-67
2022/12/05 09:33:41;;;;;;;7.93;5.35;;;;;;;;;;5011842;28;20411;-67
2022/12/05 09:36:12;;;;;;;10.23;6.65;;;;;;;;;;5011757;28;20050;-67
2022/12/05 09:38:40;;;;;;;13.40;8.10;;;;;;;;;;5011734;28;20077;-67
2022/12/05 09:41:10;;;;;;;12.65;9.15;;;;;;;;;;5010416;28;20094;-67
2022/12/05 09:43:46;;;;;;;14.60;9.93;;;;;;;;;;5011557;28;20054;-67
2022/12/05 09:46:29;;;;;;;11.65;7.35;;;;;;;;;;5011066;28;20486;-67
2022/12/05 09:49:02;;;;;;;12.75;7.60;;;;;;;;;;5011817;28;20048;-67
2022/12/05 09:51:30;;;;;;;13.35;9.18;;;;;;;;;;5011540;28;20440;-67
2022/12/05 09:53:57;;;;;;;8.50;5.68;;;;;;;;;;5011513;28;20038;-67
2022/12/05 09:56:27;;;;;;;9.13;5.65;;;;;;;;;;5011366;28;20095;-67
2022/12/05 09:58:55;;;;;;;13.63;8.88;;;;;;;;;;5011190;28;20049;-67
2022/12/05 10:01:37;;;;;;;13.07;7.65;;;;;;;;;;5011513;28;20110;-67
2022/12/05 10:04:05;;;;;;;10.85;7.38;;;;;;;;;;5011791;28;20046;-67
2022/12/05 10:06:40;;;;;;;9.82;7.28;;;;;;;;;;5011348;28;20054;-67
2022/12/05 10:09:21;;;;;;;13.93;8.35;;;;;;;;;;5011147;28;20484;-67
2022/12/05 10:11:48;;;;;;;11.45;7.63;;;;;;;;;;5011103;28;20042;-67
2022/12/05 10:14:16;;;;;;;9.20;6.72;;;;;;;;;;5010017;28;20038;-66
2022/12/05 10:16:49;;;;;;;7.93;6.07;;;;;;;;;;5011272;28;20477;-67
2022/12/05 10:19:24;;;;;;;6.93;5.13;;;;;;;;;;5011010;28;20065;-67
2022/12/05 10:21:57;;;;;;;8.60;5.55;;;;;;;;;;5010945;28;20027;-66
2022/12/05 10:24:38;;;;;;;8.60;5.50;;;;;;;;;;5010924;28;20440;-66
2022/12/05 10:27:07;;;;;;;6.47;4.63;;;;;;;;;;5010792;28;20046;-67
2022/12/05 10:29:34;;;;;;;6.45;4.60;;;;;;;;;;5010914;28;20041;-66
2022/12/05 10:32:07;;;;;;;5.78;4.20;;;;;;;;;;5011470;28;20144;-66
2022/12/05 10:34:38;;;;;;;5.45;4.20;;;;;;;;;;5010778;28;20042;-66
2022/12/05 10:37:17;;;;;;;7.85;5.30;;;;;;;;;;5010844;28;20038;-67
2022/12/05 10:39:45;;;;;;;5.90;4.10;;;;;;;;;;5010824;28;20050;-67
2022/12/05 10:42:14;;;;;;;6.85;4.78;;;;;;;;;;5010858;28;20169;-67
2022/12/05 10:44:42;;;;;;;6.32;4.75;;;;;;;;;;5010691;28;20516;-67
2022/12/05 10:47:10;;;;;;;6.97;5.20;;;;;;;;;;5010962;28;20460;-67
2022/12/05 10:49:38;;;;;;;6.65;4.85;;;;;;;;;;5010704;28;20046;-66
2022/12/05 10:52:06;;;;;;;5.78;4.05;;;;;;;;;;5009449;28;20376;-67
2022/12/05 10:54:39;;;;;;;8.15;5.38;;;;;;;;;;5009419;28;20064;-67
2022/12/05 10:57:22;;;;;;;5.57;4.50;;;;;;;;;;5008250;28;20044;-67
2022/12/05 10:59:49;;;;;;;8.20;6.22;;;;;;;;;;5010187;28;20131;-67
2022/12/05 11:02:21;;;;;;;6.85;5.07;;;;;;;;;;5010529;28;20038;-67
2022/12/05 11:04:49;;;;;;;6.68;5.18;;;;;;;;;;5010451;28;20049;-67
2022/12/05 11:07:24;;;;;;;8.00;5.85;;;;;;;;;;5010133;28;20479;-66
2022/12/05 11:09:52;;;;;;;6.88;4.85;;;;;;;;;;5008953;28;20048;-66
2022/12/05 11:12:20;;;;;;;5.90;4.43;;;;;;;;;;5010357;28;20042;-66
2022/12/05 11:15:06;;;;;;;5.85;4.15;;;;;;;;;;5010326;28;20037;-68
2022/12/05 11:17:35;;;;;;;7.78;4.75;;;;;;;;;;5010128;28;20042;-67
2022/12/05 11:20:23;;;;;;;7.85;4.72;;;;;;;;;;5010195;28;20050;-67
2022/12/05 11:22:55;;;;;;;6.47;5.03;;;;;;;;;;5009992;28;20113;-67
2022/12/05 11:25:25;;;;;;;8.77;5.90;;;;;;;;;;5008949;28;20053;-67
2022/12/05 11:27:53;;;;;;;8.90;6.30;;;;;;;;;;5010182;28;20044;-67
2022/12/05 11:30:28;;;;;;;12.68;9.13;;;;;;;;;;5009866;28;20042;-67
2022/12/05 11:33:31;;;;;;;10.30;6.85;;;;;;;;;;5008847;28;20081;-67
2022/12/05 11:36:18;;;;;;;9.10;5.95;;;;;;;;;;5050187;28;20072;-68
2022/12/05 11:38:45;;;;;;;9.90;7.10;;;;;;;;;;5012281;28;20483;-67
2022/12/05 11:41:17;;;;;;;10.70;7.18;;;;;;;;;;5009934;28;20033;-67
2022/12/05 11:43:44;;;;;;;8.35;6.05;;;;;;;;;;5009828;28;20089;-67
2022/12/05 11:46:15;;;;;;;15.90;10.55;;;;;;;;;;5009860;28;20048;-67
2022/12/05 11:48:42;;;;;;;12.57;7.65;;;;;;;;;;5009817;28;20129;-67
2022/12/05 11:51:22;;;;;;;11.68;7.10;;;;;;;;;;5009626;28;20042;-67
2022/12/05 11:54:09;;;;;;;7.82;5.38;;;;;;;;;;5009598;28;20069;-67
2022/12/05 11:56:38;;;;;;;8.60;6.22;;;;;;;;;;5009723;28;20125;-66
2022/12/05 11:59:09;;;;;;;8.98;6.07;;;;;;;;;;5009661;28;20073;-66
2022/12/05 12:01:36;;;;;;;8.05;5.55;;;;;;;;;;5008245;28;20048;-67
2022/12/05 12:04:36;;;;;;;7.00;5.22;;;;;;;;;;5009582;28;20046;-67
2022/12/05 12:07:15;;;;;;;7.53;5.55;;;;;;;;;;5030899;28;20111;-67
2022/12/05 12:10:02;;;;;;;8.55;6.13;;;;;;;;;;5012255;28;20048;-66
2022/12/05 12:12:45;;;;;;;7.47;5.50;;;;;;;;;;5011975;28;20042;-67
2022/12/05 12:15:16;;;;;;;9.27;6.00;;;;;;;;;;5011829;28;20049;-67
2022/12/05 12:17:54;;;;;;;19.00;12.73;;;;;;;;;;5012976;28;20046;-67
2022/12/05 12:20:28;;;;;;;12.18;8.30;;;;;;;;;;5012894;28;20091;-66
2022/12/05 12:23:21;;;;;;;19.45;13.93;;;;;;;;;;5013004;28;20053;-67
2022/12/05 12:26:03;;;;;;;11.40;8.07;;;;;;;;;;5012152;28;20417;-67
2022/12/05 12:28:36;;;;;;;11.82;7.70;;;;;;;;;;5012875;28;20053;-68
2022/12/05 12:31:24;;;;;;;12.30;8.02;;;;;;;;;;5012627;28;20074;-68
2022/12/05 12:34:15;;;;;;;11.95;7.88;;;;;;;;;;5013071;28;20435;-67
2022/12/05 12:36:48;;;;;;;10.40;7.10;;;;;;;;;;5017167;28;20128;-67
2022/12/05 12:39:29;;;;;;;9.98;6.45;;;;;;;;;;5012909;28;20128;-67
2022/12/05 12:41:57;;;;;;;9.70;6.93;;;;;;;;;;5012449;28;20064;-67
2022/12/05 12:44:49;;;;;;;10.65;6.72;;;;;;;;;;5012405;28;20041;-68
2022/12/05 12:47:23;;;;;;;8.98;6.63;;;;;;;;;;5012364;28;20057;-67
2022/12/05 12:50:08;;;;;;;10.05;7.10;;;;;;;;;;5012372;28;20107;-67
2022/12/05 12:52:36;;;;;;;;;;;;;;;;;;5012903;28;20045;-66
2022/12/05 12:55:15;;;;;;;9.77;6.18;;;;;;;;;;5012286;28;19925;-66
2022/12/05 12:58:09;;;;;;;9.57;6.63;;;;;;;;;;5012240;28;20498;-66
2022/12/05 13:00:37;;;;;;;12.38;7.63;;;;;;;;;;5013419;28;20054;-66
2022/12/05 13:03:05;;;;;;;11.80;7.97;;;;;;;;;;5012270;28;20487;-67
2022/12/05 13:05:32;;;;;;;14.52;8.90;;;;;;;;;;5012111;28;20046;-67
2022/12/05 13:07:59;;;;;;;16.15;9.73;;;;;;;;;;5012099;28;20091;-66
2022/12/05 13:10:38;;;;;;;15.95;8.23;;;;;;;;;;5011803;28;20383;-67
2022/12/05 13:13:06;;;;;;;14.00;8.57;;;;;;;;;;5011894;28;20117;-66
2022/12/05 13:15:46;;;;;;;11.60;7.60;;;;;;;;;;5012039;28;20042;-67
2022/12/05 13:18:18;;;;;;;12.10;8.40;;;;;;;;;;5012093;28;20044;-67
2022/12/05 13:20:47;;;;;;;12.07;7.82;;;;;;;;;;5011206;28;20113;-67
2022/12/05 13:23:17;;;;;;;16.08;10.27;;;;;;;;;;5011947;28;20054;-68
2022/12/05 13:25:45;;;;;;;11.60;8.27;;;;;;;;;;5011559;28;20487;-67
2022/12/05 13:28:21;;;;;;;11.05;7.43;;;;;;;;;;5011856;28;20095;-67
2022/12/05 13:31:01;;;;;;;16.38;8.35;;;;;;;;;;5011677;28;20111;-68
2022/12/05 13:33:49;;;;;;;11.77;8.45;;;;;;;;;;5010582;28;20453;-68
2022/12/05 13:42:32;;;;;;;14.82;9.40;;;;;;;;;;5011792;28;20042;-67
2022/12/05 13:45:08;;;;;;;17.52;11.27;;;;;;;;;;5011859;28;20046;-67
2022/12/05 13:47:45;;;;;;;20.33;11.40;;;;;;;;;;5011679;28;20121;-67
2022/12/05 13:50:15;;;;;;;24.98;12.85;;;;;;;;;;5011473;28;20121;-67
2022/12/05 13:52:42;;;;;;;19.75;11.75;;;;;;;;;;5011734;28;20038;-67
2022/12/05 13:55:22;;;;;;;18.52;10.88;;;;;;;;;;5011455;28;20041;-67
2022/12/05 13:57:51;;;;;;;23.23;13.35;;;;;;;;;;5011699;28;20368;-66
2022/12/05 14:00:25;;;;;;;23.40;12.02;;;;;;;;;;5011294;28;20054;-68
2022/12/05 14:03:03;;;;;;;15.93;10.90;;;;;;;;;;5011452;28;20040;-66
2022/12/05 14:05:37;;;;;;;13.68;9.07;;;;;;;;;;5011261;28;20042;-66
2022/12/05 14:08:23;;;;;;;16.80;10.57;;;;;;;;;;5011286;28;20173;-66
2022/12/05 14:10:50;;;;;;;19.48;12.45;;;;;;;;;;5011240;28;20038;-66
2022/12/05 14:13:18;;;;;;;18.42;10.00;;;;;;;;;;5011525;28;20115;-66
2022/12/05 14:15:47;;;;;;;17.38;11.27;;;;;;;;;;5011017;28;20125;-66
2022/12/05 14:18:21;;;;;;;18.45;12.38;;;;;;;;;;5011147;28;20046;-66
2022/12/05 14:20:48;;;;;;;30.50;16.05;;;;;;;;;;5011163;28;20118;-67
2022/12/05 14:23:16;;;;;;;26.85;14.07;;;;;;;;;;5011553;28;20426;-66
2022/12/05 14:26:03;;;;;;;23.08;13.02;;;;;;;;;;5011424;28;20136;-67
2022/12/05 14:28:44;;;;;;;19.20;12.60;;;;;;;;;;5009813;28;20486;-67
2022/12/05 14:31:11;;;;;;;17.92;12.65;;;;;;;;;;5010029;28;20049;-67
2022/12/05 14:33:39;;;;;;;21.60;14.52;;;;;;;;;;5010966;28;20349;-66
2022/12/05 14:36:13;;;;;;;20.42;14.00;;;;;;;;;;5010630;28;20068;-67
2022/12/05 14:38:41;;;;;;;24.95;14.98;;;;;;;;;;5009178;28;20050;-66
2022/12/05 14:41:12;;;;;;;26.15;16.90;;;;;;;;;;5010806;28;20050;-66
2022/12/05 14:43:40;;;;;;;40.47;21.73;;;;;;;;;;5010670;28;20048;-66
2022/12/05 14:46:14;;;;;;;53.70;26.85;;;;;;;;;;4994696;28;20046;-66
2022/12/05 14:48:47;;;;;;;85.57;39.80;;;;;;;;;;4989770;28;20517;-66
2022/12/05 14:51:30;;;;;;;79.53;37.78;;;;;;;;;;4990910;28;20376;-65
2022/12/05 14:54:05;;;;;;;80.80;37.90;;;;;;;;;;4991480;28;20076;-67
2022/12/05 14:56:39;;;;;;;27.83;15.63;;;;;;;;;;4992588;28;20565;-65
2022/12/05 14:59:27;;;;;;;20.27;12.32;;;;;;;;;;4989810;28;20480;-66
2022/12/05 15:01:57;;;;;;;32.67;16.08;;;;;;;;;;4990733;28;20046;-67
2022/12/05 15:04:35;;;;;;;27.10;16.20;;;;;;;;;;4991873;28;20074;-64
2022/12/05 15:07:04;;;;;;;35.70;20.90;;;;;;;;;;4992628;28;20070;-67
2022/12/05 15:09:47;;;;;;;45.95;24.90;;;;;;;;;;4990792;28;20075;-67
2022/12/05 15:12:19;;;;;;;29.98;17.50;;;;;;;;;;4990546;28;20545;-67
2022/12/05 15:14:52;;;;;;;26.13;16.45;;;;;;;;;;4990634;28;20069;-67